Marcel — ONDP — position and weather

sailwx.info

Track history (hours):
 
Tides and Currents Weather Stations Pressure Air Temp Water Temp Dewpoint Dewpoint Depression Visibility Wind Speed Wind Dir Waves Ship Positions

Marcel

Last reported at 2016-Sep-28 01:33 UTC. Time now 2016-Sep-28 01:51 UTC.
Position N 54°36' E 011°06'.

Length 88 m; draft 5.5 m.

Type: Cargo ship. MMSI: 205439000.

Date/timePositionNaut miles runAvg speedWind from/ knotsBaromVisibWave heightAir tempDewpointWater temp
2016-Sep-28 01:33N 54°36' E 011°06'17 8.3
2016-Sep-27 23:33N 54°30' E 011°32'29 7.3
2016-Sep-27 19:33N 54°39' E 012°20'42 8.4
2016-Sep-27 14:33N 55°20' E 012°34'9 8.9
2016-Sep-27 13:33N 55°28' E 012°26'8 0.2
2016-Sep-26 02:24N 55°27' E 012°11'0 0.0
2016-Sep-26 01:27N 55°27' E 012°11'0 0.0
2016-Sep-26 00:17N 55°27' E 012°11'0 0.0
2016-Sep-25 17:08N 55°27' E 012°11'0 0.0
2016-Sep-25 16:05N 55°27' E 012°11'0 0.0
2016-Sep-25 12:23N 55°27' E 012°11'  
2016-Sep-21 23:32N 55°27' E 012°12'7 7.0
2016-Sep-21 22:33N 55°29' E 012°23'26 8.5
2016-Sep-21 19:34N 55°52' E 012°43'99 9.9
2016-Sep-21 09:33N 57°21' E 011°28'1010.2
2016-Sep-21 08:32N 57°30' E 011°18'15310.1
2016-Sep-20 17:24N 57°45' E 006°33'64 9.3
2016-Sep-20 10:30N 58°35' E 005°15'2010.4
2016-Sep-20 08:33N 58°55' E 005°18'1110.7
2016-Sep-20 07:33N 59°05' E 005°19'50 9.9
2016-Sep-20 02:32N 59°54' E 005°43'  
Track history (hours):
 
Tides and Currents Weather Stations Pressure Air Temp Water Temp Dewpoint Dewpoint Depression Visibility Wind Speed Wind Dir Waves Ship Positions

Marcel

Last reported at 2016-Sep-28 01:33 UTC. Time now 2016-Sep-28 01:51 UTC.
Position N 54°36' E 011°06'.

Length 88 m; draft 5.5 m.

Type: Cargo ship. MMSI: 205439000.

Date/timePositionNaut miles runAvg speedWind from/ knotsBaromVisibWave heightAir tempDewpointWater temp
2016-Sep-28 01:33N 54°36' E 011°06'17 8.3
2016-Sep-27 23:33N 54°30' E 011°32'29 7.3
2016-Sep-27 19:33N 54°39' E 012°20'42 8.4
2016-Sep-27 14:33N 55°20' E 012°34'9 8.9
2016-Sep-27 13:33N 55°28' E 012°26'8 0.2
2016-Sep-26 02:24N 55°27' E 012°11'0 0.0
2016-Sep-26 01:27N 55°27' E 012°11'0 0.0
2016-Sep-26 00:17N 55°27' E 012°11'0 0.0
2016-Sep-25 17:08N 55°27' E 012°11'0 0.0
2016-Sep-25 16:05N 55°27' E 012°11'0 0.0
2016-Sep-25 12:23N 55°27' E 012°11'  
2016-Sep-21 23:32N 55°27' E 012°12'7 7.0
2016-Sep-21 22:33N 55°29' E 012°23'26 8.5
2016-Sep-21 19:34N 55°52' E 012°43'99 9.9
2016-Sep-21 09:33N 57°21' E 011°28'1010.2
2016-Sep-21 08:32N 57°30' E 011°18'15310.1
2016-Sep-20 17:24N 57°45' E 006°33'64 9.3
2016-Sep-20 10:30N 58°35' E 005°15'2010.4
2016-Sep-20 08:33N 58°55' E 005°18'1110.7
2016-Sep-20 07:33N 59°05' E 005°19'50 9.9
2016-Sep-20 02:32N 59°54' E 005°43'  

Dump ship's entire track history